Du har inga inställningar för hoppväder.nu

Hoppväder.nu

Senast uppdaterat 01:52

UTC-tid

2019-12-06 kl. 00:52


Sol och måne

Solen går upp 8:24 och går ner 15:33 (beräknade cirkatider)
Nästa fullmåne blir om 6 dagar (2019-12-12)

METAR

ESMS (Malmö)
(32 minuter sedan)
ESMS 060020Z 23019KT 9999 BKN012 OVC022 06/03 Q1003=



ESMK (Everöd)
(32 minuter sedan)
ESMK 060020Z AUTO 22016KT 9999 OVC012/// 06/04 Q1002=



ESTL (Ljungbyhed)
(32 minuter sedan)
ESTL 060020Z AUTO 22014G24KT 9999 -RA FEW013/// BKN016/// BKN021/// 06/04 Q1001 REUP=



EKCH (Köpenhamn)
(32 minuter sedan)
EKCH 060020Z 22021G31KT 8000 -RA BKN013 06/04 Q1002 TEMPO 23022G35KT BKN015=



ESTA (Ängelholm)
(32 minuter sedan)
ESTA 060020Z AUTO 23013G24KT 4600 -RA FEW006/// OVC013/// 06/04 Q1000 REDZ=



TAF

ESMS (Malmö)
(112 minuter sedan)
ESMS 052300Z 0600/0624 22018KT 8000 -RADZ BKN008 TEMPO 0600/0608 24020G32KT 3000 RADZ BR SCT008 BKN012 BECMG 0608/0610 2000 BR BKN003 TEMPO 0610/0620 24018G30KT 6000 NSW BKN008 TEMPO 0620/0624 22015G28KT 6000 SHRA BKN008 SCT015CB=



ESMK (Everöd)
ESMK



ESTL (Ljungbyhed)
ESTL



EKCH (Köpenhamn)
(110 minuter sedan)
EKCH 052302Z 0600/0624 23018KT 8000 -RADZ SCT008 BKN015 TEMPO 0600/0607 24022G35KT 4000 RADZ BR BKN008 BECMG 0607/0609 BKN008 TEMPO 0609/0618 24020G32KT 2500 BR BKN004 TEMPO 0618/0624 22018G30KT 2500 SHRA BR BKN004 SCT015CB=



ESTA (Ängelholm)
(292 minuter sedan)
ESTA 052000Z 0521/0523 24015KT 9999 BKN020 TEMPO 0521/0523 BKN008=





Kodnycklar till TAF och METAR






LHP

(Eslöv är område J3c i Hela Område E)

Prognos är inte uppdaterad




Spotting

Hur fungerar spotthjälpen och Vindkartan?

Markvind är ca 0 m/s.



Vindkartan

Senast uppdaterad 01:52




All data kommer från LFV.se